sensor_id;sensor_type;location;lat;lon;timestamp;P1;durP1;ratioP1;P2;durP2;ratioP2
20170;SDS011;10245;51.344;6.620;2023-06-24T00:01:44;12.68;;;10.23;;
20170;SDS011;10245;51.344;6.620;2023-06-24T00:04:07;12.50;;;9.82;;
20170;SDS011;10245;51.344;6.620;2023-06-24T00:06:31;12.48;;;10.68;;
20170;SDS011;10245;51.344;6.620;2023-06-24T00:08:55;12.38;;;9.90;;
20170;SDS011;10245;51.344;6.620;2023-06-24T00:11:23;11.50;;;10.23;;
20170;SDS011;10245;51.344;6.620;2023-06-24T00:13:47;11.63;;;10.23;;
20170;SDS011;10245;51.344;6.620;2023-06-24T00:16:10;11.10;;;10.00;;
20170;SDS011;10245;51.344;6.620;2023-06-24T00:18:34;12.07;;;9.38;;
20170;SDS011;10245;51.344;6.620;2023-06-24T00:20:58;11.30;;;9.50;;
20170;SDS011;10245;51.344;6.620;2023-06-24T00:23:23;10.63;;;9.63;;
20170;SDS011;10245;51.344;6.620;2023-06-24T00:25:47;11.15;;;9.98;;
20170;SDS011;10245;51.344;6.620;2023-06-24T00:28:11;12.32;;;10.25;;
20170;SDS011;10245;51.344;6.620;2023-06-24T00:30:34;10.90;;;9.63;;
20170;SDS011;10245;51.344;6.620;2023-06-24T00:32:58;12.00;;;9.77;;
20170;SDS011;10245;51.344;6.620;2023-06-24T00:35:21;10.95;;;9.85;;
20170;SDS011;10245;51.344;6.620;2023-06-24T00:37:44;10.43;;;9.43;;
20170;SDS011;10245;51.344;6.620;2023-06-24T00:40:08;12.65;;;9.52;;
20170;SDS011;10245;51.344;6.620;2023-06-24T00:42:38;11.27;;;9.68;;
20170;SDS011;10245;51.344;6.620;2023-06-24T00:45:03;14.57;;;9.98;;
20170;SDS011;10245;51.344;6.620;2023-06-24T00:47:27;13.90;;;10.35;;
20170;SDS011;10245;51.344;6.620;2023-06-24T00:49:55;14.13;;;10.48;;
20170;SDS011;10245;51.344;6.620;2023-06-24T00:52:19;13.75;;;10.57;;
20170;SDS011;10245;51.344;6.620;2023-06-24T00:54:43;11.88;;;9.82;;
20170;SDS011;10245;51.344;6.620;2023-06-24T00:57:06;11.38;;;10.25;;
20170;SDS011;10245;51.344;6.620;2023-06-24T00:59:30;11.85;;;10.25;;
20170;SDS011;10245;51.344;6.620;2023-06-24T01:01:55;13.52;;;10.80;;
20170;SDS011;10245;51.344;6.620;2023-06-24T01:04:28;14.45;;;10.43;;
20170;SDS011;10245;51.344;6.620;2023-06-24T01:06:51;11.95;;;10.70;;
20170;SDS011;10245;51.344;6.620;2023-06-24T01:09:15;11.45;;;10.13;;
20170;SDS011;10245;51.344;6.620;2023-06-24T01:11:38;13.98;;;10.75;;
20170;SDS011;10245;51.344;6.620;2023-06-24T01:14:02;12.48;;;10.45;;
20170;SDS011;10245;51.344;6.620;2023-06-24T01:16:26;13.07;;;10.00;;
20170;SDS011;10245;51.344;6.620;2023-06-24T01:19:01;13.20;;;10.15;;
20170;SDS011;10245;51.344;6.620;2023-06-24T01:21:42;16.00;;;12.55;;
20170;SDS011;10245;51.344;6.620;2023-06-24T01:24:31;15.43;;;11.90;;
20170;SDS011;10245;51.344;6.620;2023-06-24T01:30:24;13.63;;;12.02;;
20170;SDS011;10245;51.344;6.620;2023-06-24T01:33:15;17.58;;;12.93;;
20170;SDS011;10245;51.344;6.620;2023-06-24T01:35:47;14.60;;;12.10;;
20170;SDS011;10245;51.344;6.620;2023-06-24T01:38:13;15.52;;;12.40;;
20170;SDS011;10245;51.344;6.620;2023-06-24T01:40:44;15.50;;;12.38;;
20170;SDS011;10245;51.344;6.620;2023-06-24T01:43:11;13.25;;;11.77;;
20170;SDS011;10245;51.344;6.620;2023-06-24T01:45:36;14.70;;;12.05;;
20170;SDS011;10245;51.344;6.620;2023-06-24T01:48:05;16.05;;;12.52;;
20170;SDS011;10245;51.344;6.620;2023-06-24T01:50:34;14.00;;;11.65;;
20170;SDS011;10245;51.344;6.620;2023-06-24T01:53:00;14.40;;;11.57;;
20170;SDS011;10245;51.344;6.620;2023-06-24T01:55:27;12.10;;;10.80;;
20170;SDS011;10245;51.344;6.620;2023-06-24T01:57:52;15.15;;;12.40;;
20170;SDS011;10245;51.344;6.620;2023-06-24T02:00:17;17.23;;;12.30;;
20170;SDS011;10245;51.344;6.620;2023-06-24T02:02:43;15.23;;;11.80;;
20170;SDS011;10245;51.344;6.620;2023-06-24T02:05:09;15.73;;;11.20;;
20170;SDS011;10245;51.344;6.620;2023-06-24T02:07:34;13.88;;;10.95;;
20170;SDS011;10245;51.344;6.620;2023-06-24T02:09:59;14.65;;;11.77;;
20170;SDS011;10245;51.344;6.620;2023-06-24T02:12:23;13.80;;;11.38;;
20170;SDS011;10245;51.344;6.620;2023-06-24T02:14:49;12.07;;;10.88;;
20170;SDS011;10245;51.344;6.620;2023-06-24T02:17:13;12.55;;;11.13;;
20170;SDS011;10245;51.344;6.620;2023-06-24T02:19:37;13.25;;;11.55;;
20170;SDS011;10245;51.344;6.620;2023-06-24T02:22:01;14.70;;;11.95;;
20170;SDS011;10245;51.344;6.620;2023-06-24T02:24:27;14.68;;;12.00;;
20170;SDS011;10245;51.344;6.620;2023-06-24T02:26:51;12.48;;;11.18;;
20170;SDS011;10245;51.344;6.620;2023-06-24T02:29:17;12.93;;;11.35;;
20170;SDS011;10245;51.344;6.620;2023-06-24T02:31:41;13.32;;;11.95;;
20170;SDS011;10245;51.344;6.620;2023-06-24T02:34:04;14.43;;;11.93;;
20170;SDS011;10245;51.344;6.620;2023-06-24T02:36:29;16.13;;;12.05;;
20170;SDS011;10245;51.344;6.620;2023-06-24T02:38:52;14.65;;;12.40;;
20170;SDS011;10245;51.344;6.620;2023-06-24T02:41:17;14.20;;;11.40;;
20170;SDS011;10245;51.344;6.620;2023-06-24T02:43:41;13.82;;;12.30;;
20170;SDS011;10245;51.344;6.620;2023-06-24T02:46:05;15.18;;;12.68;;
20170;SDS011;10245;51.344;6.620;2023-06-24T02:48:30;17.48;;;12.43;;
20170;SDS011;10245;51.344;6.620;2023-06-24T02:50:55;17.23;;;12.15;;
20170;SDS011;10245;51.344;6.620;2023-06-24T02:53:20;18.75;;;13.35;;
20170;SDS011;10245;51.344;6.620;2023-06-24T02:55:43;13.20;;;11.77;;
20170;SDS011;10245;51.344;6.620;2023-06-24T02:58:09;15.93;;;12.68;;
20170;SDS011;10245;51.344;6.620;2023-06-24T03:01:02;13.60;;;11.98;;
20170;SDS011;10245;51.344;6.620;2023-06-24T03:03:39;16.98;;;12.63;;
20170;SDS011;10245;51.344;6.620;2023-06-24T03:06:06;17.23;;;12.70;;
20170;SDS011;10245;51.344;6.620;2023-06-24T03:08:34;14.60;;;12.48;;
20170;SDS011;10245;51.344;6.620;2023-06-24T03:10:57;16.67;;;13.20;;
20170;SDS011;10245;51.344;6.620;2023-06-24T03:13:25;15.18;;;13.57;;
20170;SDS011;10245;51.344;6.620;2023-06-24T03:16:12;14.13;;;12.60;;
20170;SDS011;10245;51.344;6.620;2023-06-24T03:18:43;17.73;;;12.93;;
20170;SDS011;10245;51.344;6.620;2023-06-24T03:21:06;13.90;;;12.35;;
20170;SDS011;10245;51.344;6.620;2023-06-24T03:23:29;13.82;;;11.73;;
20170;SDS011;10245;51.344;6.620;2023-06-24T03:25:53;15.10;;;12.82;;
20170;SDS011;10245;51.344;6.620;2023-06-24T03:28:17;16.45;;;13.02;;
20170;SDS011;10245;51.344;6.620;2023-06-24T03:30:47;15.80;;;12.98;;
20170;SDS011;10245;51.344;6.620;2023-06-24T03:33:13;13.90;;;12.23;;
20170;SDS011;10245;51.344;6.620;2023-06-24T03:35:39;14.68;;;12.63;;
20170;SDS011;10245;51.344;6.620;2023-06-24T03:38:06;14.43;;;12.63;;
20170;SDS011;10245;51.344;6.620;2023-06-24T03:40:30;20.38;;;13.80;;
20170;SDS011;10245;51.344;6.620;2023-06-24T03:42:53;14.75;;;13.13;;
20170;SDS011;10245;51.344;6.620;2023-06-24T03:45:16;17.27;;;13.00;;
20170;SDS011;10245;51.344;6.620;2023-06-24T03:47:41;16.52;;;11.98;;
20170;SDS011;10245;51.344;6.620;2023-06-24T03:50:05;14.75;;;12.70;;
20170;SDS011;10245;51.344;6.620;2023-06-24T03:52:29;19.38;;;14.25;;
20170;SDS011;10245;51.344;6.620;2023-06-24T03:54:52;17.90;;;15.77;;
20170;SDS011;10245;51.344;6.620;2023-06-24T03:57:15;15.32;;;13.73;;
20170;SDS011;10245;51.344;6.620;2023-06-24T03:59:39;16.98;;;13.60;;
20170;SDS011;10245;51.344;6.620;2023-06-24T04:02:02;16.80;;;13.18;;
20170;SDS011;10245;51.344;6.620;2023-06-24T04:04:31;19.33;;;12.85;;
20170;SDS011;10245;51.344;6.620;2023-06-24T04:06:54;15.35;;;13.27;;
20170;SDS011;10245;51.344;6.620;2023-06-24T04:09:17;19.20;;;13.75;;
20170;SDS011;10245;51.344;6.620;2023-06-24T04:11:41;19.33;;;14.45;;
20170;SDS011;10245;51.344;6.620;2023-06-24T04:14:04;19.25;;;14.02;;
20170;SDS011;10245;51.344;6.620;2023-06-24T04:16:28;17.08;;;13.07;;
20170;SDS011;10245;51.344;6.620;2023-06-24T04:18:51;16.05;;;13.35;;
20170;SDS011;10245;51.344;6.620;2023-06-24T04:21:16;15.50;;;13.50;;
20170;SDS011;10245;51.344;6.620;2023-06-24T04:23:40;18.40;;;13.93;;
20170;SDS011;10245;51.344;6.620;2023-06-24T04:26:03;18.23;;;14.27;;
20170;SDS011;10245;51.344;6.620;2023-06-24T04:28:26;16.30;;;13.40;;
20170;SDS011;10245;51.344;6.620;2023-06-24T04:30:49;18.20;;;13.50;;
20170;SDS011;10245;51.344;6.620;2023-06-24T04:33:13;17.45;;;13.25;;
20170;SDS011;10245;51.344;6.620;2023-06-24T04:35:36;16.30;;;13.32;;
20170;SDS011;10245;51.344;6.620;2023-06-24T04:38:01;17.48;;;13.82;;
20170;SDS011;10245;51.344;6.620;2023-06-24T04:40:24;20.50;;;14.20;;
20170;SDS011;10245;51.344;6.620;2023-06-24T04:42:48;18.75;;;13.77;;
20170;SDS011;10245;51.344;6.620;2023-06-24T04:45:11;18.40;;;13.77;;
20170;SDS011;10245;51.344;6.620;2023-06-24T04:47:34;16.98;;;13.52;;
20170;SDS011;10245;51.344;6.620;2023-06-24T04:49:57;19.15;;;13.93;;
20170;SDS011;10245;51.344;6.620;2023-06-24T04:52:21;18.08;;;14.50;;
20170;SDS011;10245;51.344;6.620;2023-06-24T04:54:48;18.55;;;12.57;;
20170;SDS011;10245;51.344;6.620;2023-06-24T04:57:22;17.23;;;13.35;;
20170;SDS011;10245;51.344;6.620;2023-06-24T04:59:48;15.88;;;13.55;;
20170;SDS011;10245;51.344;6.620;2023-06-24T05:02:11;17.88;;;13.90;;
20170;SDS011;10245;51.344;6.620;2023-06-24T05:04:35;16.20;;;14.05;;
20170;SDS011;10245;51.344;6.620;2023-06-24T05:06:58;18.42;;;13.20;;
20170;SDS011;10245;51.344;6.620;2023-06-24T05:09:21;20.90;;;14.32;;
20170;SDS011;10245;51.344;6.620;2023-06-24T05:11:46;18.17;;;14.27;;
20170;SDS011;10245;51.344;6.620;2023-06-24T05:14:09;17.58;;;13.35;;
20170;SDS011;10245;51.344;6.620;2023-06-24T05:16:32;17.35;;;14.38;;
20170;SDS011;10245;51.344;6.620;2023-06-24T05:18:56;22.23;;;14.95;;
20170;SDS011;10245;51.344;6.620;2023-06-24T05:21:19;23.00;;;14.93;;
20170;SDS011;10245;51.344;6.620;2023-06-24T05:23:42;17.77;;;12.85;;
20170;SDS011;10245;51.344;6.620;2023-06-24T05:26:05;19.98;;;14.27;;
20170;SDS011;10245;51.344;6.620;2023-06-24T05:28:30;21.05;;;15.43;;
20170;SDS011;10245;51.344;6.620;2023-06-24T05:30:53;22.10;;;15.07;;
20170;SDS011;10245;51.344;6.620;2023-06-24T05:33:16;19.52;;;15.63;;
20170;SDS011;10245;51.344;6.620;2023-06-24T05:35:40;23.75;;;16.67;;
20170;SDS011;10245;51.344;6.620;2023-06-24T05:38:06;24.00;;;16.42;;
20170;SDS011;10245;51.344;6.620;2023-06-24T05:40:29;21.92;;;16.23;;
20170;SDS011;10245;51.344;6.620;2023-06-24T05:42:52;22.35;;;16.73;;
20170;SDS011;10245;51.344;6.620;2023-06-24T05:45:17;22.35;;;16.83;;
20170;SDS011;10245;51.344;6.620;2023-06-24T05:47:41;27.00;;;16.58;;
20170;SDS011;10245;51.344;6.620;2023-06-24T05:50:04;23.77;;;17.13;;
20170;SDS011;10245;51.344;6.620;2023-06-24T05:52:28;21.25;;;16.42;;
20170;SDS011;10245;51.344;6.620;2023-06-24T05:54:51;23.20;;;17.15;;
20170;SDS011;10245;51.344;6.620;2023-06-24T05:57:15;22.90;;;17.00;;
20170;SDS011;10245;51.344;6.620;2023-06-24T05:59:38;24.50;;;16.70;;
20170;SDS011;10245;51.344;6.620;2023-06-24T06:02:02;22.90;;;17.02;;
20170;SDS011;10245;51.344;6.620;2023-06-24T06:04:26;23.35;;;17.08;;
20170;SDS011;10245;51.344;6.620;2023-06-24T06:06:49;23.90;;;17.55;;
20170;SDS011;10245;51.344;6.620;2023-06-24T06:09:12;23.67;;;17.10;;
20170;SDS011;10245;51.344;6.620;2023-06-24T06:11:36;24.05;;;16.88;;
20170;SDS011;10245;51.344;6.620;2023-06-24T06:13:59;21.67;;;16.35;;
20170;SDS011;10245;51.344;6.620;2023-06-24T06:16:22;26.30;;;18.25;;
20170;SDS011;10245;51.344;6.620;2023-06-24T06:18:48;21.48;;;15.98;;
20170;SDS011;10245;51.344;6.620;2023-06-24T06:21:11;26.38;;;17.95;;
20170;SDS011;10245;51.344;6.620;2023-06-24T06:23:35;23.73;;;19.20;;
20170;SDS011;10245;51.344;6.620;2023-06-24T06:25:58;24.70;;;18.20;;
20170;SDS011;10245;51.344;6.620;2023-06-24T06:28:21;25.55;;;18.33;;
20170;SDS011;10245;51.344;6.620;2023-06-24T06:30:44;23.30;;;19.33;;
20170;SDS011;10245;51.344;6.620;2023-06-24T06:33:07;20.75;;;18.00;;
20170;SDS011;10245;51.344;6.620;2023-06-24T06:35:32;22.23;;;17.10;;
20170;SDS011;10245;51.344;6.620;2023-06-24T06:37:57;23.80;;;17.23;;
20170;SDS011;10245;51.344;6.620;2023-06-24T06:40:20;20.52;;;16.23;;
20170;SDS011;10245;51.344;6.620;2023-06-24T06:42:44;17.38;;;15.43;;
20170;SDS011;10245;51.344;6.620;2023-06-24T06:45:07;17.65;;;14.30;;
20170;SDS011;10245;51.344;6.620;2023-06-24T06:47:31;15.15;;;13.00;;
20170;SDS011;10245;51.344;6.620;2023-06-24T06:49:54;15.15;;;12.50;;
20170;SDS011;10245;51.344;6.620;2023-06-24T06:52:19;12.38;;;11.07;;
20170;SDS011;10245;51.344;6.620;2023-06-24T06:54:42;10.93;;;9.75;;
20170;SDS011;10245;51.344;6.620;2023-06-24T06:57:05;12.18;;;9.20;;
20170;SDS011;10245;51.344;6.620;2023-06-24T06:59:29;10.48;;;9.07;;
20170;SDS011;10245;51.344;6.620;2023-06-24T07:01:52;10.32;;;8.60;;
20170;SDS011;10245;51.344;6.620;2023-06-24T07:04:16;10.25;;;8.50;;
20170;SDS011;10245;51.344;6.620;2023-06-24T07:06:39;8.60;;;7.68;;
20170;SDS011;10245;51.344;6.620;2023-06-24T07:09:03;8.85;;;7.95;;
20170;SDS011;10245;51.344;6.620;2023-06-24T07:11:27;10.00;;;8.18;;
20170;SDS011;10245;51.344;6.620;2023-06-24T07:13:50;14.80;;;7.18;;
20170;SDS011;10245;51.344;6.620;2023-06-24T07:16:14;9.57;;;6.82;;
20170;SDS011;10245;51.344;6.620;2023-06-24T07:18:38;8.60;;;6.78;;
20170;SDS011;10245;51.344;6.620;2023-06-24T07:21:01;8.77;;;7.47;;
20170;SDS011;10245;51.344;6.620;2023-06-24T07:23:25;8.23;;;7.32;;
20170;SDS011;10245;51.344;6.620;2023-06-24T07:25:49;11.50;;;7.80;;
20170;SDS011;10245;51.344;6.620;2023-06-24T07:28:13;9.73;;;8.10;;
20170;SDS011;10245;51.344;6.620;2023-06-24T07:30:36;29.85;;;8.10;;
20170;SDS011;10245;51.344;6.620;2023-06-24T07:32:59;10.93;;;8.63;;
20170;SDS011;10245;51.344;6.620;2023-06-24T07:35:26;9.45;;;8.05;;
20170;SDS011;10245;51.344;6.620;2023-06-24T07:37:49;8.00;;;7.18;;
20170;SDS011;10245;51.344;6.620;2023-06-24T07:40:13;10.68;;;7.95;;
20170;SDS011;10245;51.344;6.620;2023-06-24T07:42:37;10.60;;;8.23;;
20170;SDS011;10245;51.344;6.620;2023-06-24T07:45:00;8.82;;;7.93;;
20170;SDS011;10245;51.344;6.620;2023-06-24T07:47:24;10.40;;;7.72;;
20170;SDS011;10245;51.344;6.620;2023-06-24T07:49:47;10.70;;;7.72;;
20170;SDS011;10245;51.344;6.620;2023-06-24T07:52:10;8.20;;;6.75;;
20170;SDS011;10245;51.344;6.620;2023-06-24T07:54:34;11.85;;;7.90;;
20170;SDS011;10245;51.344;6.620;2023-06-24T07:56:57;6.80;;;6.07;;
20170;SDS011;10245;51.344;6.620;2023-06-24T07:59:22;6.95;;;4.85;;
20170;SDS011;10245;51.344;6.620;2023-06-24T08:01:46;7.85;;;5.57;;
20170;SDS011;10245;51.344;6.620;2023-06-24T08:04:09;8.18;;;4.25;;
20170;SDS011;10245;51.344;6.620;2023-06-24T08:06:32;6.68;;;4.28;;
20170;SDS011;10245;51.344;6.620;2023-06-24T08:08:56;6.38;;;4.93;;
20170;SDS011;10245;51.344;6.620;2023-06-24T08:11:19;5.88;;;5.28;;
20170;SDS011;10245;51.344;6.620;2023-06-24T08:13:43;9.40;;;5.80;;
20170;SDS011;10245;51.344;6.620;2023-06-24T08:16:07;7.90;;;6.05;;
20170;SDS011;10245;51.344;6.620;2023-06-24T08:18:30;7.50;;;5.75;;
20170;SDS011;10245;51.344;6.620;2023-06-24T08:20:54;7.32;;;5.95;;
20170;SDS011;10245;51.344;6.620;2023-06-24T08:23:18;7.00;;;6.07;;
20170;SDS011;10245;51.344;6.620;2023-06-24T08:25:41;9.65;;;6.15;;
20170;SDS011;10245;51.344;6.620;2023-06-24T08:28:04;7.32;;;5.32;;
20170;SDS011;10245;51.344;6.620;2023-06-24T08:30:28;13.45;;;8.63;;
20170;SDS011;10245;51.344;6.620;2023-06-24T08:32:52;9.75;;;6.93;;
20170;SDS011;10245;51.344;6.620;2023-06-24T08:35:16;8.15;;;6.57;;
20170;SDS011;10245;51.344;6.620;2023-06-24T08:37:39;11.48;;;8.52;;
20170;SDS011;10245;51.344;6.620;2023-06-24T08:40:02;12.55;;;9.10;;
20170;SDS011;10245;51.344;6.620;2023-06-24T08:42:27;14.38;;;10.32;;
20170;SDS011;10245;51.344;6.620;2023-06-24T08:44:50;16.23;;;11.82;;
20170;SDS011;10245;51.344;6.620;2023-06-24T08:47:14;15.98;;;10.60;;
20170;SDS011;10245;51.344;6.620;2023-06-24T08:49:41;16.08;;;11.40;;
20170;SDS011;10245;51.344;6.620;2023-06-24T08:52:10;14.55;;;10.52;;
20170;SDS011;10245;51.344;6.620;2023-06-24T08:54:37;16.23;;;10.88;;
20170;SDS011;10245;51.344;6.620;2023-06-24T08:57:03;21.92;;;11.35;;
20170;SDS011;10245;51.344;6.620;2023-06-24T08:59:28;13.77;;;9.70;;
20170;SDS011;10245;51.344;6.620;2023-06-24T09:01:52;11.05;;;8.20;;
20170;SDS011;10245;51.344;6.620;2023-06-24T09:04:15;8.82;;;7.55;;
20170;SDS011;10245;51.344;6.620;2023-06-24T09:06:39;11.43;;;7.35;;
20170;SDS011;10245;51.344;6.620;2023-06-24T09:09:03;7.82;;;6.97;;
20170;SDS011;10245;51.344;6.620;2023-06-24T09:11:26;9.02;;;6.85;;
20170;SDS011;10245;51.344;6.620;2023-06-24T09:13:54;9.05;;;7.53;;
20170;SDS011;10245;51.344;6.620;2023-06-24T09:16:18;12.13;;;8.35;;
20170;SDS011;10245;51.344;6.620;2023-06-24T09:18:41;9.05;;;6.97;;
20170;SDS011;10245;51.344;6.620;2023-06-24T09:21:10;8.15;;;5.95;;
20170;SDS011;10245;51.344;6.620;2023-06-24T09:23:36;10.32;;;5.95;;
20170;SDS011;10245;51.344;6.620;2023-06-24T09:26:01;8.95;;;6.10;;
20170;SDS011;10245;51.344;6.620;2023-06-24T09:28:25;10.10;;;6.07;;
20170;SDS011;10245;51.344;6.620;2023-06-24T09:31:00;9.38;;;5.63;;
20170;SDS011;10245;51.344;6.620;2023-06-24T09:33:40;6.05;;;5.18;;
20170;SDS011;10245;51.344;6.620;2023-06-24T09:36:03;8.98;;;5.95;;
20170;SDS011;10245;51.344;6.620;2023-06-24T09:38:34;8.38;;;6.50;;
20170;SDS011;10245;51.344;6.620;2023-06-24T09:41:01;8.95;;;5.95;;
20170;SDS011;10245;51.344;6.620;2023-06-24T09:43:34;10.85;;;8.15;;
20170;SDS011;10245;51.344;6.620;2023-06-24T09:46:01;11.55;;;7.80;;
20170;SDS011;10245;51.344;6.620;2023-06-24T09:48:25;12.50;;;7.70;;
20170;SDS011;10245;51.344;6.620;2023-06-24T09:50:48;6.72;;;5.88;;
20170;SDS011;10245;51.344;6.620;2023-06-24T09:53:11;6.63;;;5.88;;
20170;SDS011;10245;51.344;6.620;2023-06-24T09:55:36;9.85;;;6.80;;
20170;SDS011;10245;51.344;6.620;2023-06-24T09:58:04;10.57;;;7.07;;
20170;SDS011;10245;51.344;6.620;2023-06-24T10:00:28;9.27;;;6.68;;
20170;SDS011;10245;51.344;6.620;2023-06-24T10:02:52;9.27;;;6.25;;
20170;SDS011;10245;51.344;6.620;2023-06-24T10:05:21;6.20;;;4.57;;
20170;SDS011;10245;51.344;6.620;2023-06-24T10:07:44;6.38;;;4.80;;
20170;SDS011;10245;51.344;6.620;2023-06-24T10:10:08;6.78;;;5.60;;
20170;SDS011;10245;51.344;6.620;2023-06-24T10:12:34;9.10;;;6.22;;
20170;SDS011;10245;51.344;6.620;2023-06-24T10:14:58;8.00;;;6.40;;
20170;SDS011;10245;51.344;6.620;2023-06-24T10:17:22;8.02;;;5.03;;
20170;SDS011;10245;51.344;6.620;2023-06-24T10:19:46;5.65;;;4.35;;
20170;SDS011;10245;51.344;6.620;2023-06-24T10:22:09;8.00;;;4.25;;
20170;SDS011;10245;51.344;6.620;2023-06-24T10:24:34;5.70;;;3.88;;
20170;SDS011;10245;51.344;6.620;2023-06-24T10:27:03;3.95;;;3.45;;
20170;SDS011;10245;51.344;6.620;2023-06-24T10:29:32;6.45;;;4.82;;
20170;SDS011;10245;51.344;6.620;2023-06-24T10:32:00;5.05;;;4.30;;
20170;SDS011;10245;51.344;6.620;2023-06-24T10:34:32;7.05;;;4.90;;
20170;SDS011;10245;51.344;6.620;2023-06-24T10:37:03;5.72;;;3.22;;
20170;SDS011;10245;51.344;6.620;2023-06-24T10:39:40;4.65;;;3.25;;
20170;SDS011;10245;51.344;6.620;2023-06-24T10:42:33;6.50;;;4.40;;
20170;SDS011;10245;51.344;6.620;2023-06-24T10:45:02;4.82;;;4.30;;
20170;SDS011;10245;51.344;6.620;2023-06-24T10:47:43;5.75;;;3.75;;
20170;SDS011;10245;51.344;6.620;2023-06-24T10:50:09;4.45;;;3.70;;
20170;SDS011;10245;51.344;6.620;2023-06-24T10:52:37;7.78;;;3.60;;
20170;SDS011;10245;51.344;6.620;2023-06-24T10:55:00;6.07;;;3.95;;
20170;SDS011;10245;51.344;6.620;2023-06-24T10:57:26;4.32;;;3.90;;
20170;SDS011;10245;51.344;6.620;2023-06-24T10:59:50;6.60;;;3.80;;
20170;SDS011;10245;51.344;6.620;2023-06-24T11:02:17;5.65;;;4.05;;
20170;SDS011;10245;51.344;6.620;2023-06-24T11:04:42;3.65;;;3.25;;
20170;SDS011;10245;51.344;6.620;2023-06-24T11:07:06;5.78;;;3.75;;
20170;SDS011;10245;51.344;6.620;2023-06-24T11:09:30;5.03;;;3.80;;
20170;SDS011;10245;51.344;6.620;2023-06-24T11:11:53;4.65;;;3.55;;
20170;SDS011;10245;51.344;6.620;2023-06-24T11:14:16;3.65;;;3.35;;
20170;SDS011;10245;51.344;6.620;2023-06-24T11:16:40;3.42;;;3.13;;
20170;SDS011;10245;51.344;6.620;2023-06-24T11:19:04;5.72;;;3.72;;
20170;SDS011;10245;51.344;6.620;2023-06-24T11:21:29;4.07;;;3.45;;
20170;SDS011;10245;51.344;6.620;2023-06-24T11:23:53;6.47;;;3.65;;
20170;SDS011;10245;51.344;6.620;2023-06-24T11:26:16;4.50;;;3.47;;
20170;SDS011;10245;51.344;6.620;2023-06-24T11:28:39;5.40;;;3.10;;
20170;SDS011;10245;51.344;6.620;2023-06-24T11:31:05;3.60;;;3.28;;
20170;SDS011;10245;51.344;6.620;2023-06-24T11:33:29;5.13;;;3.03;;
20170;SDS011;10245;51.344;6.620;2023-06-24T11:35:54;4.18;;;3.55;;
20170;SDS011;10245;51.344;6.620;2023-06-24T11:38:17;3.92;;;3.53;;
20170;SDS011;10245;51.344;6.620;2023-06-24T11:40:41;4.18;;;3.40;;
20170;SDS011;10245;51.344;6.620;2023-06-24T11:43:04;4.00;;;3.60;;
20170;SDS011;10245;51.344;6.620;2023-06-24T11:45:27;4.63;;;3.70;;
20170;SDS011;10245;51.344;6.620;2023-06-24T11:47:51;3.97;;;3.47;;
20170;SDS011;10245;51.344;6.620;2023-06-24T11:50:14;5.68;;;3.50;;
20170;SDS011;10245;51.344;6.620;2023-06-24T11:52:40;5.50;;;2.95;;
20170;SDS011;10245;51.344;6.620;2023-06-24T11:55:10;4.88;;;3.35;;
20170;SDS011;10245;51.344;6.620;2023-06-24T11:57:51;5.30;;;3.50;;
20170;SDS011;10245;51.344;6.620;2023-06-24T12:00:19;3.92;;;3.42;;
20170;SDS011;10245;51.344;6.620;2023-06-24T12:02:45;5.13;;;2.88;;
20170;SDS011;10245;51.344;6.620;2023-06-24T12:05:08;3.78;;;3.33;;
20170;SDS011;10245;51.344;6.620;2023-06-24T12:07:32;3.28;;;2.95;;
20170;SDS011;10245;51.344;6.620;2023-06-24T12:09:56;3.85;;;2.88;;
20170;SDS011;10245;51.344;6.620;2023-06-24T12:12:19;2.70;;;2.50;;
20170;SDS011;10245;51.344;6.620;2023-06-24T12:14:43;3.30;;;2.95;;
20170;SDS011;10245;51.344;6.620;2023-06-24T12:17:06;3.55;;;2.47;;
20170;SDS011;10245;51.344;6.620;2023-06-24T12:19:29;4.85;;;2.90;;
20170;SDS011;10245;51.344;6.620;2023-06-24T12:21:53;5.60;;;2.50;;
20170;SDS011;10245;51.344;6.620;2023-06-24T12:24:17;3.67;;;2.42;;
20170;SDS011;10245;51.344;6.620;2023-06-24T12:26:42;3.17;;;2.88;;
20170;SDS011;10245;51.344;6.620;2023-06-24T12:29:08;2.58;;;2.38;;
20170;SDS011;10245;51.344;6.620;2023-06-24T12:31:31;4.65;;;2.70;;
20170;SDS011;10245;51.344;6.620;2023-06-24T12:33:54;5.43;;;3.10;;
20170;SDS011;10245;51.344;6.620;2023-06-24T12:36:18;3.10;;;2.78;;
20170;SDS011;10245;51.344;6.620;2023-06-24T12:38:42;2.85;;;2.30;;
20170;SDS011;10245;51.344;6.620;2023-06-24T12:41:05;3.80;;;2.33;;
20170;SDS011;10245;51.344;6.620;2023-06-24T12:43:30;2.45;;;2.25;;
20170;SDS011;10245;51.344;6.620;2023-06-24T12:45:54;2.50;;;2.30;;
20170;SDS011;10245;51.344;6.620;2023-06-24T12:48:17;3.65;;;2.40;;
20170;SDS011;10245;51.344;6.620;2023-06-24T12:50:40;2.30;;;2.10;;
20170;SDS011;10245;51.344;6.620;2023-06-24T12:53:04;3.63;;;2.53;;
20170;SDS011;10245;51.344;6.620;2023-06-24T12:55:27;3.35;;;2.70;;
20170;SDS011;10245;51.344;6.620;2023-06-24T12:57:51;3.08;;;2.78;;
20170;SDS011;10245;51.344;6.620;2023-06-24T13:00:16;3.45;;;2.22;;
20170;SDS011;10245;51.344;6.620;2023-06-24T13:02:42;3.08;;;2.63;;
20170;SDS011;10245;51.344;6.620;2023-06-24T13:05:05;3.05;;;2.75;;
20170;SDS011;10245;51.344;6.620;2023-06-24T13:07:30;3.17;;;2.50;;
20170;SDS011;10245;51.344;6.620;2023-06-24T13:09:53;2.97;;;2.60;;
20170;SDS011;10245;51.344;6.620;2023-06-24T13:12:16;4.43;;;2.95;;
20170;SDS011;10245;51.344;6.620;2023-06-24T13:14:39;3.22;;;2.63;;
20170;SDS011;10245;51.344;6.620;2023-06-24T13:17:05;2.40;;;2.20;;
20170;SDS011;10245;51.344;6.620;2023-06-24T13:19:29;3.55;;;2.30;;
20170;SDS011;10245;51.344;6.620;2023-06-24T13:21:53;3.00;;;2.70;;
20170;SDS011;10245;51.344;6.620;2023-06-24T13:24:17;2.80;;;2.60;;
20170;SDS011;10245;51.344;6.620;2023-06-24T13:26:40;2.58;;;2.38;;
20170;SDS011;10245;51.344;6.620;2023-06-24T13:29:03;2.63;;;2.42;;
20170;SDS011;10245;51.344;6.620;2023-06-24T13:31:27;2.67;;;2.45;;
20170;SDS011;10245;51.344;6.620;2023-06-24T13:33:52;2.88;;;2.50;;
20170;SDS011;10245;51.344;6.620;2023-06-24T13:36:26;3.17;;;2.50;;
20170;SDS011;10245;51.344;6.620;2023-06-24T13:38:54;5.00;;;2.53;;
20170;SDS011;10245;51.344;6.620;2023-06-24T13:41:17;3.78;;;2.83;;
20170;SDS011;10245;51.344;6.620;2023-06-24T13:43:40;2.65;;;2.45;;
20170;SDS011;10245;51.344;6.620;2023-06-24T13:46:03;2.85;;;2.40;;
20170;SDS011;10245;51.344;6.620;2023-06-24T13:48:27;4.00;;;2.65;;
20170;SDS011;10245;51.344;6.620;2023-06-24T13:50:51;4.40;;;2.50;;
20170;SDS011;10245;51.344;6.620;2023-06-24T13:53:15;3.83;;;2.40;;
20170;SDS011;10245;51.344;6.620;2023-06-24T13:55:38;2.30;;;2.10;;
20170;SDS011;10245;51.344;6.620;2023-06-24T13:58:01;2.63;;;2.42;;
20170;SDS011;10245;51.344;6.620;2023-06-24T14:00:24;2.20;;;2.00;;
20170;SDS011;10245;51.344;6.620;2023-06-24T14:02:48;3.53;;;2.25;;
20170;SDS011;10245;51.344;6.620;2023-06-24T14:05:11;2.47;;;2.28;;
20170;SDS011;10245;51.344;6.620;2023-06-24T14:07:35;3.40;;;2.47;;
20170;SDS011;10245;51.344;6.620;2023-06-24T14:09:59;2.38;;;2.17;;
20170;SDS011;10245;51.344;6.620;2023-06-24T14:12:22;2.25;;;2.13;;
20170;SDS011;10245;51.344;6.620;2023-06-24T14:14:46;2.28;;;2.08;;
20170;SDS011;10245;51.344;6.620;2023-06-24T14:17:09;3.08;;;2.65;;
20170;SDS011;10245;51.344;6.620;2023-06-24T14:19:33;3.13;;;2.47;;
20170;SDS011;10245;51.344;6.620;2023-06-24T14:21:57;2.95;;;2.33;;
20170;SDS011;10245;51.344;6.620;2023-06-24T14:24:22;2.42;;;2.22;;